Splendour Of The Seas — C6TZ9 — position and weather

sailwx.info

Track history (hours):
 
Tides and Currents Weather Stations Pressure Air Temp Water Temp Dewpoint Dewpoint Depression Visibility Wind Speed Wind Dir Waves Ship Positions

Splendour Of The Seas

Last reported at 2016-Apr-25 10:17 UTC. Time now 2016-Jul-30 16:45 UTC.
Position N 35°59' W 005°32'.
Warning: this ship's position is months out of date.

Type: Passenger vessel. MMSI: 311804000.

Date/timePositionNaut miles runAvg speedWind from/ knotsBaromVisibWave heightAir tempDewpointWater temp
2016-Apr-25 10:17N 35°59' W 005°32'1317.5
2016-Apr-25 09:33N 36°02' W 005°17'21919.5
2016-Apr-24 22:21N 36°39' W 000°49'69320.2
2016-Apr-23 12:06N 36°53' E 013°36'1120.7
2016-Apr-23 11:33N 36°50' E 013°49'2120.6
2016-Apr-23 10:33N 36°45' E 014°14'10617.4
2016-Apr-23 04:28N 37°33' E 016°12'29219.0
2016-Apr-22 13:08N 42°11' E 018°08'276 6.2
2016-Apr-20 16:32N 45°00' E 013°08'2020.7
2016-Apr-20 15:33N 45°14' E 012°47'1717.0
2016-Apr-20 14:33N 45°24' E 012°28'7 7.0
2016-Apr-20 13:34N 45°26' E 012°18'0 0.3
2016-Apr-20 12:33N 45°26' E 012°19'0 0.0
2016-Apr-20 11:33N 45°26' E 012°19'0 0.0
2016-Apr-20 10:33N 45°26' E 012°19'0 0.0
2016-Apr-20 09:33N 45°26' E 012°19'0 0.0
2016-Apr-20 08:33N 45°26' E 012°19'0 0.0
2016-Apr-20 07:33N 45°26' E 012°19'0 0.0
2016-Apr-20 06:33N 45°26' E 012°19'0 0.0
2016-Apr-20 05:33N 45°26' E 012°19'0 0.0
2016-Apr-20 04:30N 45°26' E 012°19'1 0.9
2016-Apr-20 03:33N 45°26' E 012°20'8 8.0
2016-Apr-20 02:33N 45°23' E 012°30'1413.8
2016-Apr-20 01:33N 45°15' E 012°46'1514.7
2016-Apr-20 00:33N 45°07' E 013°04'1514.9
2016-Apr-19 23:33N 44°58' E 013°21'4517.5
2016-Apr-19 21:00N 44°18' E 013°48'18 8.8 360 / 131018.0 14.0 17.0
2016-Apr-19 19:00N 44°06' E 014°06'19214.8 360 / 191017.0 14.0 17.0
2016-Apr-19 06:00N 41°42' E 017°00'14315.9 330 / 91011.0 19.0 21.0
2016-Apr-18 21:00N 39°48' E 018°54'1312.9 130 / 151016.0 19.0 20.0
2016-Apr-18 20:00N 39°36' E 019°00'10614.1 120 / 151016.0 19.0 20.0
2016-Apr-18 12:28N 38°07' E 020°12'1414.9
2016-Apr-18 11:33N 37°55' E 020°22'3014.9
2016-Apr-18 09:33N 37°30' E 020°41'1514.9
2016-Apr-18 08:33N 37°17' E 020°51'3614.0
2016-Apr-18 06:00N 36°48' E 021°18'9414.5 040 / 91019.0 18.0 21.0
2016-Apr-17 23:31N 36°24' E 023°11'1515.3
2016-Apr-17 22:34N 36°36' E 023°21'1515.2
2016-Apr-17 21:33N 36°50' E 023°31'1414.5
2016-Apr-17 20:34N 37°03' E 023°36'3 4.7
2016-Apr-17 20:00N 37°06' E 023°36'1227.1 160 / 91019.0 19.0 19.0
2016-Apr-17 19:33N 37°18' E 023°38'1515.0
2016-Apr-17 18:33N 37°33' E 023°41'1414.5
2016-Apr-17 17:34N 37°47' E 023°38'9 9.1
2016-Apr-17 16:32N 37°56' E 023°38'0 0.0
2016-Apr-17 15:31N 37°56' E 023°38'0 0.0
2016-Apr-17 14:31N 37°56' E 023°38'0 0.0
2016-Apr-17 13:31N 37°56' E 023°38'0 0.0
2016-Apr-17 12:28N 37°56' E 023°38'0 0.0
2016-Apr-17 11:31N 37°56' E 023°38'0 0.0
2016-Apr-17 10:31N 37°56' E 023°38'0 0.0
2016-Apr-17 09:28N 37°56' E 023°38'0 0.0
2016-Apr-17 08:31N 37°56' E 023°38'0 0.0
2016-Apr-17 07:31N 37°56' E 023°38'0 0.0
2016-Apr-17 06:31N 37°56' E 023°38'0 0.0
2016-Apr-17 05:28N 37°56' E 023°38'0 0.0
2016-Apr-17 04:31N 37°56' E 023°38'0 0.1
2016-Apr-17 03:33N 37°56' E 023°38'5 4.9
2016-Apr-17 02:33N 37°52' E 023°39'1111.1
2016-Apr-17 01:33N 37°42' E 023°45'1110.8
2016-Apr-17 00:33N 37°32' E 023°50'1111.0
2016-Apr-16 23:33N 37°22' E 023°58'1110.9
2016-Apr-16 22:33N 37°15' E 024°07'1111.2
2016-Apr-16 21:33N 37°06' E 024°17'1110.9
2016-Apr-16 20:33N 36°59' E 024°27'610.4
2016-Apr-16 20:00N 36°54' E 024°30'1912.9 280 / 91018.0 18.0 22.0
2016-Apr-16 18:33N 36°49' E 024°53'1411.2
2016-Apr-16 17:20N 36°45' E 025°09'2010.3
2016-Apr-16 15:23N 36°28' E 025°21'4 4.9
2016-Apr-16 14:33N 36°25' E 025°25'0 0.0
2016-Apr-16 13:33N 36°25' E 025°25'0 0.1
2016-Apr-16 12:06N 36°25' E 025°25'0 0.0
2016-Apr-16 11:33N 36°25' E 025°25'0 0.0
2016-Apr-16 10:32N 36°25' E 025°25'0 0.1
2016-Apr-16 09:32N 36°25' E 025°25'0 0.1
2016-Apr-16 08:29N 36°25' E 025°25'0 0.0
2016-Apr-16 07:33N 36°25' E 025°25'0 0.2
2016-Apr-16 06:32N 36°25' E 025°25'0 0.0
2016-Apr-16 05:32N 36°25' E 025°25'3 2.6
2016-Apr-16 04:33N 36°23' E 025°23'9413.2
2016-Apr-15 21:26N 35°16' E 026°44'4116.8
2016-Apr-15 19:00N 35°00' E 027°30'   270 / 141014.0 18.0 20.0
Track history (hours):
 
Tides and Currents Weather Stations Pressure Air Temp Water Temp Dewpoint Dewpoint Depression Visibility Wind Speed Wind Dir Waves Ship Positions

Splendour Of The Seas

Last reported at 2016-Apr-25 10:17 UTC. Time now 2016-Jul-30 16:45 UTC.
Position N 35°59' W 005°32'.
Warning: this ship's position is months out of date.

Type: Passenger vessel. MMSI: 311804000.

Date/timePositionNaut miles runAvg speedWind from/ knotsBaromVisibWave heightAir tempDewpointWater temp
2016-Apr-25 10:17N 35°59' W 005°32'1317.5
2016-Apr-25 09:33N 36°02' W 005°17'21919.5
2016-Apr-24 22:21N 36°39' W 000°49'69320.2
2016-Apr-23 12:06N 36°53' E 013°36'1120.7
2016-Apr-23 11:33N 36°50' E 013°49'2120.6
2016-Apr-23 10:33N 36°45' E 014°14'10617.4
2016-Apr-23 04:28N 37°33' E 016°12'29219.0
2016-Apr-22 13:08N 42°11' E 018°08'276 6.2
2016-Apr-20 16:32N 45°00' E 013°08'2020.7
2016-Apr-20 15:33N 45°14' E 012°47'1717.0
2016-Apr-20 14:33N 45°24' E 012°28'7 7.0
2016-Apr-20 13:34N 45°26' E 012°18'0 0.3
2016-Apr-20 12:33N 45°26' E 012°19'0 0.0
2016-Apr-20 11:33N 45°26' E 012°19'0 0.0
2016-Apr-20 10:33N 45°26' E 012°19'0 0.0
2016-Apr-20 09:33N 45°26' E 012°19'0 0.0
2016-Apr-20 08:33N 45°26' E 012°19'0 0.0
2016-Apr-20 07:33N 45°26' E 012°19'0 0.0
2016-Apr-20 06:33N 45°26' E 012°19'0 0.0
2016-Apr-20 05:33N 45°26' E 012°19'0 0.0
2016-Apr-20 04:30N 45°26' E 012°19'1 0.9
2016-Apr-20 03:33N 45°26' E 012°20'8 8.0
2016-Apr-20 02:33N 45°23' E 012°30'1413.8
2016-Apr-20 01:33N 45°15' E 012°46'1514.7
2016-Apr-20 00:33N 45°07' E 013°04'1514.9
2016-Apr-19 23:33N 44°58' E 013°21'4517.5
2016-Apr-19 21:00N 44°18' E 013°48'18 8.8 360 / 131018.0 14.0 17.0
2016-Apr-19 19:00N 44°06' E 014°06'19214.8 360 / 191017.0 14.0 17.0
2016-Apr-19 06:00N 41°42' E 017°00'14315.9 330 / 91011.0 19.0 21.0
2016-Apr-18 21:00N 39°48' E 018°54'1312.9 130 / 151016.0 19.0 20.0
2016-Apr-18 20:00N 39°36' E 019°00'10614.1 120 / 151016.0 19.0 20.0
2016-Apr-18 12:28N 38°07' E 020°12'1414.9
2016-Apr-18 11:33N 37°55' E 020°22'3014.9
2016-Apr-18 09:33N 37°30' E 020°41'1514.9
2016-Apr-18 08:33N 37°17' E 020°51'3614.0
2016-Apr-18 06:00N 36°48' E 021°18'9414.5 040 / 91019.0 18.0 21.0
2016-Apr-17 23:31N 36°24' E 023°11'1515.3
2016-Apr-17 22:34N 36°36' E 023°21'1515.2
2016-Apr-17 21:33N 36°50' E 023°31'1414.5
2016-Apr-17 20:34N 37°03' E 023°36'3 4.7
2016-Apr-17 20:00N 37°06' E 023°36'1227.1 160 / 91019.0 19.0 19.0
2016-Apr-17 19:33N 37°18' E 023°38'1515.0
2016-Apr-17 18:33N 37°33' E 023°41'1414.5
2016-Apr-17 17:34N 37°47' E 023°38'9 9.1
2016-Apr-17 16:32N 37°56' E 023°38'0 0.0
2016-Apr-17 15:31N 37°56' E 023°38'0 0.0
2016-Apr-17 14:31N 37°56' E 023°38'0 0.0
2016-Apr-17 13:31N 37°56' E 023°38'0 0.0
2016-Apr-17 12:28N 37°56' E 023°38'0 0.0
2016-Apr-17 11:31N 37°56' E 023°38'0 0.0
2016-Apr-17 10:31N 37°56' E 023°38'0 0.0
2016-Apr-17 09:28N 37°56' E 023°38'0 0.0
2016-Apr-17 08:31N 37°56' E 023°38'0 0.0
2016-Apr-17 07:31N 37°56' E 023°38'0 0.0
2016-Apr-17 06:31N 37°56' E 023°38'0 0.0
2016-Apr-17 05:28N 37°56' E 023°38'0 0.0
2016-Apr-17 04:31N 37°56' E 023°38'0 0.1
2016-Apr-17 03:33N 37°56' E 023°38'5 4.9
2016-Apr-17 02:33N 37°52' E 023°39'1111.1
2016-Apr-17 01:33N 37°42' E 023°45'1110.8
2016-Apr-17 00:33N 37°32' E 023°50'1111.0
2016-Apr-16 23:33N 37°22' E 023°58'1110.9
2016-Apr-16 22:33N 37°15' E 024°07'1111.2
2016-Apr-16 21:33N 37°06' E 024°17'1110.9
2016-Apr-16 20:33N 36°59' E 024°27'610.4
2016-Apr-16 20:00N 36°54' E 024°30'1912.9 280 / 91018.0 18.0 22.0
2016-Apr-16 18:33N 36°49' E 024°53'1411.2
2016-Apr-16 17:20N 36°45' E 025°09'2010.3
2016-Apr-16 15:23N 36°28' E 025°21'4 4.9
2016-Apr-16 14:33N 36°25' E 025°25'0 0.0
2016-Apr-16 13:33N 36°25' E 025°25'0 0.1
2016-Apr-16 12:06N 36°25' E 025°25'0 0.0
2016-Apr-16 11:33N 36°25' E 025°25'0 0.0
2016-Apr-16 10:32N 36°25' E 025°25'0 0.1
2016-Apr-16 09:32N 36°25' E 025°25'0 0.1
2016-Apr-16 08:29N 36°25' E 025°25'0 0.0
2016-Apr-16 07:33N 36°25' E 025°25'0 0.2
2016-Apr-16 06:32N 36°25' E 025°25'0 0.0
2016-Apr-16 05:32N 36°25' E 025°25'3 2.6
2016-Apr-16 04:33N 36°23' E 025°23'9413.2
2016-Apr-15 21:26N 35°16' E 026°44'4116.8
2016-Apr-15 19:00N 35°00' E 027°30'   270 / 141014.0 18.0 20.0

Dump ship's entire track history